sensor_id;sensor_type;location;lat;lon;timestamp;P1;durP1;ratioP1;P2;durP2;ratioP2
23300;SDS011;11819;51.394;12.340;2023-01-01T00:01:23;57.65;;;42.60;;
23300;SDS011;11819;51.394;12.340;2023-01-01T00:03:50;63.00;;;47.85;;
23300;SDS011;11819;51.394;12.340;2023-01-01T00:06:18;53.20;;;40.67;;
23300;SDS011;11819;51.394;12.340;2023-01-01T00:08:46;50.38;;;36.15;;
23300;SDS011;11819;51.394;12.340;2023-01-01T00:11:12;33.40;;;23.83;;
23300;SDS011;11819;51.394;12.340;2023-01-01T00:13:38;34.03;;;25.70;;
23300;SDS011;11819;51.394;12.340;2023-01-01T00:16:09;28.20;;;19.92;;
23300;SDS011;11819;51.394;12.340;2023-01-01T00:18:37;22.48;;;15.18;;
23300;SDS011;11819;51.394;12.340;2023-01-01T00:21:09;20.02;;;14.82;;
23300;SDS011;11819;51.394;12.340;2023-01-01T00:23:37;15.25;;;9.70;;
23300;SDS011;11819;51.394;12.340;2023-01-01T00:26:11;11.70;;;8.23;;
23300;SDS011;11819;51.394;12.340;2023-01-01T00:28:38;13.27;;;8.70;;
23300;SDS011;11819;51.394;12.340;2023-01-01T00:33:34;11.48;;;6.80;;
23300;SDS011;11819;51.394;12.340;2023-01-01T00:36:12;8.13;;;4.57;;
23300;SDS011;11819;51.394;12.340;2023-01-01T00:44:01;9.13;;;6.03;;
23300;SDS011;11819;51.394;12.340;2023-01-01T00:46:27;9.98;;;5.47;;
23300;SDS011;11819;51.394;12.340;2023-01-01T00:48:53;9.70;;;5.15;;
23300;SDS011;11819;51.394;12.340;2023-01-01T00:51:19;10.80;;;5.05;;
23300;SDS011;11819;51.394;12.340;2023-01-01T00:53:45;9.82;;;5.40;;
23300;SDS011;11819;51.394;12.340;2023-01-01T00:56:11;9.40;;;5.20;;
23300;SDS011;11819;51.394;12.340;2023-01-01T00:58:36;10.25;;;5.70;;
23300;SDS011;11819;51.394;12.340;2023-01-01T01:01:02;12.45;;;5.97;;
23300;SDS011;11819;51.394;12.340;2023-01-01T01:03:28;8.63;;;5.50;;
23300;SDS011;11819;51.394;12.340;2023-01-01T01:08:24;9.23;;;4.68;;
23300;SDS011;11819;51.394;12.340;2023-01-01T01:10:51;8.85;;;5.18;;
23300;SDS011;11819;51.394;12.340;2023-01-01T01:13:17;8.45;;;5.32;;
23300;SDS011;11819;51.394;12.340;2023-01-01T01:15:43;9.23;;;5.15;;
23300;SDS011;11819;51.394;12.340;2023-01-01T01:18:10;8.73;;;5.20;;
23300;SDS011;11819;51.394;12.340;2023-01-01T01:20:36;11.50;;;6.57;;
23300;SDS011;11819;51.394;12.340;2023-01-01T01:23:01;10.80;;;5.72;;
23300;SDS011;11819;51.394;12.340;2023-01-01T01:25:27;12.73;;;8.27;;
23300;SDS011;11819;51.394;12.340;2023-01-01T01:27:52;10.88;;;6.20;;
23300;SDS011;11819;51.394;12.340;2023-01-01T01:30:18;18.10;;;8.40;;
23300;SDS011;11819;51.394;12.340;2023-01-01T01:32:44;9.48;;;6.20;;
23300;SDS011;11819;51.394;12.340;2023-01-01T01:35:10;12.00;;;6.03;;
23300;SDS011;11819;51.394;12.340;2023-01-01T01:37:35;13.13;;;6.07;;
23300;SDS011;11819;51.394;12.340;2023-01-01T01:40:01;10.10;;;6.22;;
23300;SDS011;11819;51.394;12.340;2023-01-01T01:42:27;10.13;;;5.72;;
23300;SDS011;11819;51.394;12.340;2023-01-01T01:45:00;12.05;;;6.03;;
23300;SDS011;11819;51.394;12.340;2023-01-01T01:47:37;11.57;;;5.22;;
23300;SDS011;11819;51.394;12.340;2023-01-01T01:52:33;9.63;;;5.78;;
23300;SDS011;11819;51.394;12.340;2023-01-01T01:55:01;9.82;;;5.68;;
23300;SDS011;11819;51.394;12.340;2023-01-01T01:57:30;10.32;;;5.78;;
23300;SDS011;11819;51.394;12.340;2023-01-01T01:59:59;12.45;;;6.78;;
23300;SDS011;11819;51.394;12.340;2023-01-01T02:02:28;11.15;;;6.75;;
23300;SDS011;11819;51.394;12.340;2023-01-01T02:05:01;10.80;;;5.30;;
23300;SDS011;11819;51.394;12.340;2023-01-01T02:07:30;11.00;;;5.47;;
23300;SDS011;11819;51.394;12.340;2023-01-01T02:09:59;13.00;;;6.57;;
23300;SDS011;11819;51.394;12.340;2023-01-01T02:12:26;9.27;;;5.28;;
23300;SDS011;11819;51.394;12.340;2023-01-01T02:14:52;11.15;;;5.57;;
23300;SDS011;11819;51.394;12.340;2023-01-01T02:17:23;9.27;;;4.65;;
23300;SDS011;11819;51.394;12.340;2023-01-01T02:22:30;10.15;;;5.47;;
23300;SDS011;11819;51.394;12.340;2023-01-01T02:28:04;8.20;;;5.00;;
23300;SDS011;11819;51.394;12.340;2023-01-01T02:30:40;9.23;;;4.32;;
23300;SDS011;11819;51.394;12.340;2023-01-01T02:33:13;9.70;;;5.40;;
23300;SDS011;11819;51.394;12.340;2023-01-01T02:35:55;9.13;;;5.30;;
23300;SDS011;11819;51.394;12.340;2023-01-01T02:41:09;9.05;;;4.90;;
23300;SDS011;11819;51.394;12.340;2023-01-01T02:43:40;8.40;;;4.80;;
23300;SDS011;11819;51.394;12.340;2023-01-01T02:46:07;10.15;;;5.38;;
23300;SDS011;11819;51.394;12.340;2023-01-01T02:48:35;11.10;;;5.53;;
23300;SDS011;11819;51.394;12.340;2023-01-01T02:51:22;8.45;;;5.45;;
23300;SDS011;11819;51.394;12.340;2023-01-01T02:56:47;14.27;;;6.90;;
23300;SDS011;11819;51.394;12.340;2023-01-01T03:05:14;8.15;;;4.72;;
23300;SDS011;11819;51.394;12.340;2023-01-01T03:07:49;7.30;;;5.00;;
23300;SDS011;11819;51.394;12.340;2023-01-01T03:10:37;9.75;;;5.50;;
23300;SDS011;11819;51.394;12.340;2023-01-01T03:18:20;8.60;;;5.07;;
23300;SDS011;11819;51.394;12.340;2023-01-01T03:20:50;8.27;;;5.32;;
23300;SDS011;11819;51.394;12.340;2023-01-01T03:23:21;9.52;;;5.03;;
23300;SDS011;11819;51.394;12.340;2023-01-01T03:25:53;8.75;;;4.90;;
23300;SDS011;11819;51.394;12.340;2023-01-01T03:28:24;10.82;;;5.35;;
23300;SDS011;11819;51.394;12.340;2023-01-01T03:30:58;7.88;;;4.78;;
23300;SDS011;11819;51.394;12.340;2023-01-01T03:33:35;8.43;;;5.03;;
23300;SDS011;11819;51.394;12.340;2023-01-01T03:36:06;8.80;;;5.32;;
23300;SDS011;11819;51.394;12.340;2023-01-01T03:38:41;9.77;;;5.75;;
23300;SDS011;11819;51.394;12.340;2023-01-01T03:44:14;10.15;;;5.78;;
23300;SDS011;11819;51.394;12.340;2023-01-01T03:46:51;13.40;;;6.25;;
23300;SDS011;11819;51.394;12.340;2023-01-01T03:49:17;11.93;;;6.50;;
23300;SDS011;11819;51.394;12.340;2023-01-01T04:00:10;11.45;;;6.00;;
23300;SDS011;11819;51.394;12.340;2023-01-01T04:02:51;13.25;;;6.60;;
23300;SDS011;11819;51.394;12.340;2023-01-01T04:05:25;10.30;;;6.20;;
23300;SDS011;11819;51.394;12.340;2023-01-01T04:07:53;11.88;;;6.45;;
23300;SDS011;11819;51.394;12.340;2023-01-01T04:10:19;9.90;;;6.43;;
23300;SDS011;11819;51.394;12.340;2023-01-01T04:12:47;12.57;;;6.63;;
23300;SDS011;11819;51.394;12.340;2023-01-01T04:15:19;12.27;;;6.13;;
23300;SDS011;11819;51.394;12.340;2023-01-01T04:17:46;9.27;;;5.85;;
23300;SDS011;11819;51.394;12.340;2023-01-01T04:20:12;11.48;;;6.65;;
23300;SDS011;11819;51.394;12.340;2023-01-01T04:22:39;11.90;;;6.45;;
23300;SDS011;11819;51.394;12.340;2023-01-01T04:25:04;11.40;;;7.15;;
23300;SDS011;11819;51.394;12.340;2023-01-01T04:27:31;11.82;;;6.45;;
23300;SDS011;11819;51.394;12.340;2023-01-01T04:29:58;10.95;;;6.28;;
23300;SDS011;11819;51.394;12.340;2023-01-01T04:32:25;12.85;;;5.95;;
23300;SDS011;11819;51.394;12.340;2023-01-01T04:34:50;9.88;;;6.30;;
23300;SDS011;11819;51.394;12.340;2023-01-01T04:37:16;14.77;;;6.93;;
23300;SDS011;11819;51.394;12.340;2023-01-01T04:39:42;12.38;;;6.13;;
23300;SDS011;11819;51.394;12.340;2023-01-01T04:42:08;11.40;;;6.53;;
23300;SDS011;11819;51.394;12.340;2023-01-01T04:44:34;11.73;;;6.45;;
23300;SDS011;11819;51.394;12.340;2023-01-01T04:46:59;11.35;;;6.40;;
23300;SDS011;11819;51.394;12.340;2023-01-01T04:49:25;11.68;;;6.30;;
23300;SDS011;11819;51.394;12.340;2023-01-01T04:51:52;11.75;;;6.03;;
23300;SDS011;11819;51.394;12.340;2023-01-01T04:54:18;9.52;;;5.38;;
23300;SDS011;11819;51.394;12.340;2023-01-01T04:56:43;10.60;;;6.22;;
23300;SDS011;11819;51.394;12.340;2023-01-01T04:59:09;12.43;;;6.25;;
23300;SDS011;11819;51.394;12.340;2023-01-01T05:01:34;11.85;;;6.13;;
23300;SDS011;11819;51.394;12.340;2023-01-01T05:04:01;12.40;;;6.90;;
23300;SDS011;11819;51.394;12.340;2023-01-01T05:06:27;10.80;;;6.10;;
23300;SDS011;11819;51.394;12.340;2023-01-01T05:08:53;10.38;;;6.10;;
23300;SDS011;11819;51.394;12.340;2023-01-01T05:11:29;11.15;;;6.47;;
23300;SDS011;11819;51.394;12.340;2023-01-01T05:13:57;12.25;;;6.50;;
23300;SDS011;11819;51.394;12.340;2023-01-01T05:16:25;11.00;;;6.10;;
23300;SDS011;11819;51.394;12.340;2023-01-01T05:18:53;9.68;;;6.22;;
23300;SDS011;11819;51.394;12.340;2023-01-01T05:21:20;12.23;;;6.53;;
23300;SDS011;11819;51.394;12.340;2023-01-01T05:23:47;11.30;;;6.28;;
23300;SDS011;11819;51.394;12.340;2023-01-01T05:26:15;11.30;;;6.05;;
23300;SDS011;11819;51.394;12.340;2023-01-01T05:28:44;12.23;;;6.47;;
23300;SDS011;11819;51.394;12.340;2023-01-01T05:31:11;9.50;;;5.97;;
23300;SDS011;11819;51.394;12.340;2023-01-01T05:33:39;11.73;;;6.70;;
23300;SDS011;11819;51.394;12.340;2023-01-01T05:36:11;10.13;;;5.78;;
23300;SDS011;11819;51.394;12.340;2023-01-01T05:38:40;10.90;;;5.68;;
23300;SDS011;11819;51.394;12.340;2023-01-01T05:41:06;10.30;;;5.72;;
23300;SDS011;11819;51.394;12.340;2023-01-01T05:43:34;9.20;;;6.38;;
23300;SDS011;11819;51.394;12.340;2023-01-01T05:46:01;9.68;;;5.80;;
23300;SDS011;11819;51.394;12.340;2023-01-01T05:48:28;10.00;;;5.50;;
23300;SDS011;11819;51.394;12.340;2023-01-01T05:51:00;10.90;;;5.78;;
23300;SDS011;11819;51.394;12.340;2023-01-01T05:53:29;11.15;;;5.25;;
23300;SDS011;11819;51.394;12.340;2023-01-01T05:55:56;8.15;;;4.95;;
23300;SDS011;11819;51.394;12.340;2023-01-01T05:58:22;8.70;;;5.28;;
23300;SDS011;11819;51.394;12.340;2023-01-01T06:00:49;11.95;;;5.50;;
23300;SDS011;11819;51.394;12.340;2023-01-01T06:03:14;11.25;;;5.32;;
23300;SDS011;11819;51.394;12.340;2023-01-01T06:05:41;9.02;;;5.05;;
23300;SDS011;11819;51.394;12.340;2023-01-01T06:08:07;9.93;;;5.18;;
23300;SDS011;11819;51.394;12.340;2023-01-01T06:10:32;9.68;;;5.20;;
23300;SDS011;11819;51.394;12.340;2023-01-01T06:12:58;9.57;;;4.88;;
23300;SDS011;11819;51.394;12.340;2023-01-01T06:15:24;10.00;;;5.90;;
23300;SDS011;11819;51.394;12.340;2023-01-01T06:17:50;9.63;;;5.13;;
23300;SDS011;11819;51.394;12.340;2023-01-01T06:20:16;10.30;;;5.28;;
23300;SDS011;11819;51.394;12.340;2023-01-01T06:22:42;11.73;;;5.80;;
23300;SDS011;11819;51.394;12.340;2023-01-01T06:25:09;10.10;;;6.18;;
23300;SDS011;11819;51.394;12.340;2023-01-01T06:27:36;8.95;;;5.25;;
23300;SDS011;11819;51.394;12.340;2023-01-01T06:30:03;9.23;;;4.80;;
23300;SDS011;11819;51.394;12.340;2023-01-01T06:32:30;9.90;;;5.47;;
23300;SDS011;11819;51.394;12.340;2023-01-01T06:34:55;10.52;;;5.20;;
23300;SDS011;11819;51.394;12.340;2023-01-01T06:37:21;7.32;;;4.88;;
23300;SDS011;11819;51.394;12.340;2023-01-01T06:39:47;9.70;;;4.63;;
23300;SDS011;11819;51.394;12.340;2023-01-01T06:42:12;9.55;;;5.05;;
23300;SDS011;11819;51.394;12.340;2023-01-01T06:44:38;10.55;;;5.03;;
23300;SDS011;11819;51.394;12.340;2023-01-01T06:47:04;10.38;;;5.10;;
23300;SDS011;11819;51.394;12.340;2023-01-01T06:49:29;9.18;;;5.15;;
23300;SDS011;11819;51.394;12.340;2023-01-01T06:51:55;9.07;;;4.82;;
23300;SDS011;11819;51.394;12.340;2023-01-01T06:54:21;8.18;;;4.30;;
23300;SDS011;11819;51.394;12.340;2023-01-01T06:56:47;7.88;;;4.65;;
23300;SDS011;11819;51.394;12.340;2023-01-01T06:59:14;9.30;;;5.82;;
23300;SDS011;11819;51.394;12.340;2023-01-01T07:01:40;7.10;;;4.03;;
23300;SDS011;11819;51.394;12.340;2023-01-01T07:04:09;10.32;;;4.57;;
23300;SDS011;11819;51.394;12.340;2023-01-01T07:06:37;7.57;;;4.47;;
23300;SDS011;11819;51.394;12.340;2023-01-01T07:09:04;9.18;;;5.30;;
23300;SDS011;11819;51.394;12.340;2023-01-01T07:11:31;9.23;;;4.53;;
23300;SDS011;11819;51.394;12.340;2023-01-01T07:13:59;10.15;;;5.05;;
23300;SDS011;11819;51.394;12.340;2023-01-01T07:16:25;8.65;;;4.65;;
23300;SDS011;11819;51.394;12.340;2023-01-01T07:18:52;7.10;;;4.25;;
23300;SDS011;11819;51.394;12.340;2023-01-01T07:21:28;6.57;;;4.07;;
23300;SDS011;11819;51.394;12.340;2023-01-01T07:23:56;9.80;;;4.82;;
23300;SDS011;11819;51.394;12.340;2023-01-01T07:26:27;9.43;;;4.93;;
23300;SDS011;11819;51.394;12.340;2023-01-01T07:28:53;8.13;;;4.70;;
23300;SDS011;11819;51.394;12.340;2023-01-01T07:31:19;9.55;;;5.32;;
23300;SDS011;11819;51.394;12.340;2023-01-01T07:33:45;9.05;;;5.13;;
23300;SDS011;11819;51.394;12.340;2023-01-01T07:36:10;8.23;;;4.90;;
23300;SDS011;11819;51.394;12.340;2023-01-01T07:38:36;10.43;;;5.45;;
23300;SDS011;11819;51.394;12.340;2023-01-01T07:41:02;9.15;;;4.55;;
23300;SDS011;11819;51.394;12.340;2023-01-01T07:43:28;10.23;;;5.40;;
23300;SDS011;11819;51.394;12.340;2023-01-01T07:45:54;10.25;;;5.63;;
23300;SDS011;11819;51.394;12.340;2023-01-01T07:48:19;9.43;;;5.30;;
23300;SDS011;11819;51.394;12.340;2023-01-01T07:50:45;12.25;;;6.10;;
23300;SDS011;11819;51.394;12.340;2023-01-01T07:53:10;9.18;;;5.15;;
23300;SDS011;11819;51.394;12.340;2023-01-01T07:55:36;9.80;;;6.13;;
23300;SDS011;11819;51.394;12.340;2023-01-01T07:58:02;10.18;;;5.80;;
23300;SDS011;11819;51.394;12.340;2023-01-01T08:00:28;8.82;;;4.82;;
23300;SDS011;11819;51.394;12.340;2023-01-01T08:02:54;8.88;;;5.28;;
23300;SDS011;11819;51.394;12.340;2023-01-01T08:05:20;11.02;;;6.68;;
23300;SDS011;11819;51.394;12.340;2023-01-01T08:07:46;10.77;;;5.90;;
23300;SDS011;11819;51.394;12.340;2023-01-01T08:10:12;9.77;;;5.82;;
23300;SDS011;11819;51.394;12.340;2023-01-01T08:12:39;9.70;;;5.93;;
23300;SDS011;11819;51.394;12.340;2023-01-01T08:15:05;10.55;;;6.50;;
23300;SDS011;11819;51.394;12.340;2023-01-01T08:17:32;9.90;;;5.50;;
23300;SDS011;11819;51.394;12.340;2023-01-01T08:19:58;10.73;;;6.32;;
23300;SDS011;11819;51.394;12.340;2023-01-01T08:22:23;10.18;;;5.80;;
23300;SDS011;11819;51.394;12.340;2023-01-01T08:24:49;10.68;;;6.15;;
23300;SDS011;11819;51.394;12.340;2023-01-01T08:27:15;8.98;;;5.10;;
23300;SDS011;11819;51.394;12.340;2023-01-01T08:29:41;10.90;;;5.90;;
23300;SDS011;11819;51.394;12.340;2023-01-01T08:32:08;10.75;;;5.22;;
23300;SDS011;11819;51.394;12.340;2023-01-01T08:34:34;8.32;;;4.55;;
23300;SDS011;11819;51.394;12.340;2023-01-01T08:37:01;9.95;;;5.15;;
23300;SDS011;11819;51.394;12.340;2023-01-01T08:39:28;9.60;;;6.20;;
23300;SDS011;11819;51.394;12.340;2023-01-01T08:41:53;10.73;;;6.32;;
23300;SDS011;11819;51.394;12.340;2023-01-01T08:44:19;12.73;;;6.95;;
23300;SDS011;11819;51.394;12.340;2023-01-01T08:46:45;11.43;;;6.40;;
23300;SDS011;11819;51.394;12.340;2023-01-01T08:49:10;10.57;;;6.47;;
23300;SDS011;11819;51.394;12.340;2023-01-01T08:51:36;11.57;;;5.47;;
23300;SDS011;11819;51.394;12.340;2023-01-01T08:54:02;10.07;;;6.07;;
23300;SDS011;11819;51.394;12.340;2023-01-01T08:56:28;11.38;;;6.55;;
23300;SDS011;11819;51.394;12.340;2023-01-01T08:58:54;12.65;;;6.55;;
23300;SDS011;11819;51.394;12.340;2023-01-01T09:01:21;10.85;;;6.38;;
23300;SDS011;11819;51.394;12.340;2023-01-01T09:03:50;13.52;;;6.55;;
23300;SDS011;11819;51.394;12.340;2023-01-01T09:06:15;11.65;;;6.95;;
23300;SDS011;11819;51.394;12.340;2023-01-01T09:08:41;9.82;;;6.20;;
23300;SDS011;11819;51.394;12.340;2023-01-01T09:11:07;12.23;;;6.50;;
23300;SDS011;11819;51.394;12.340;2023-01-01T09:13:42;13.48;;;6.95;;
23300;SDS011;11819;51.394;12.340;2023-01-01T09:16:08;12.68;;;7.65;;
23300;SDS011;11819;51.394;12.340;2023-01-01T09:18:33;14.30;;;7.35;;
23300;SDS011;11819;51.394;12.340;2023-01-01T09:20:59;11.05;;;6.25;;
23300;SDS011;11819;51.394;12.340;2023-01-01T09:23:25;11.45;;;6.80;;
23300;SDS011;11819;51.394;12.340;2023-01-01T09:25:51;12.82;;;6.53;;
23300;SDS011;11819;51.394;12.340;2023-01-01T09:28:17;13.73;;;7.50;;
23300;SDS011;11819;51.394;12.340;2023-01-01T09:30:43;13.10;;;5.85;;
23300;SDS011;11819;51.394;12.340;2023-01-01T09:33:08;14.25;;;7.00;;
23300;SDS011;11819;51.394;12.340;2023-01-01T09:35:35;11.98;;;5.90;;
23300;SDS011;11819;51.394;12.340;2023-01-01T09:38:04;8.80;;;4.93;;
23300;SDS011;11819;51.394;12.340;2023-01-01T09:40:44;13.05;;;6.93;;
23300;SDS011;11819;51.394;12.340;2023-01-01T09:46:16;9.90;;;6.07;;
23300;SDS011;11819;51.394;12.340;2023-01-01T09:48:46;11.27;;;6.70;;
23300;SDS011;11819;51.394;12.340;2023-01-01T09:51:25;10.52;;;5.20;;
23300;SDS011;11819;51.394;12.340;2023-01-01T09:57:01;10.90;;;6.45;;
23300;SDS011;11819;51.394;12.340;2023-01-01T09:59:37;12.55;;;7.22;;
23300;SDS011;11819;51.394;12.340;2023-01-01T10:02:16;15.00;;;7.45;;
23300;SDS011;11819;51.394;12.340;2023-01-01T10:13:36;11.13;;;5.75;;
23300;SDS011;11819;51.394;12.340;2023-01-01T10:16:49;8.48;;;5.05;;
23300;SDS011;11819;51.394;12.340;2023-01-01T10:19:05;11.45;;;7.38;;
23300;SDS011;11819;51.394;12.340;2023-01-01T10:21:43;12.75;;;7.15;;
23300;SDS011;11819;51.394;12.340;2023-01-01T10:24:24;12.57;;;7.10;;
23300;SDS011;11819;51.394;12.340;2023-01-01T10:27:12;9.93;;;5.55;;
23300;SDS011;11819;51.394;12.340;2023-01-01T10:29:56;10.05;;;5.20;;
23300;SDS011;11819;51.394;12.340;2023-01-01T10:32:27;12.38;;;6.80;;
23300;SDS011;11819;51.394;12.340;2023-01-01T10:34:56;10.20;;;6.57;;
23300;SDS011;11819;51.394;12.340;2023-01-01T10:37:23;11.75;;;5.82;;
23300;SDS011;11819;51.394;12.340;2023-01-01T10:39:54;11.00;;;6.10;;
23300;SDS011;11819;51.394;12.340;2023-01-01T10:42:19;11.80;;;6.95;;
23300;SDS011;11819;51.394;12.340;2023-01-01T10:44:45;14.13;;;6.63;;
23300;SDS011;11819;51.394;12.340;2023-01-01T10:50:00;10.05;;;5.90;;
23300;SDS011;11819;51.394;12.340;2023-01-01T10:52:35;13.48;;;6.70;;
23300;SDS011;11819;51.394;12.340;2023-01-01T10:55:03;11.35;;;6.57;;
23300;SDS011;11819;51.394;12.340;2023-01-01T10:57:32;12.65;;;7.20;;
23300;SDS011;11819;51.394;12.340;2023-01-01T11:00:35;11.13;;;6.32;;
23300;SDS011;11819;51.394;12.340;2023-01-01T11:08:34;15.23;;;6.72;;
23300;SDS011;11819;51.394;12.340;2023-01-01T11:11:02;11.43;;;5.88;;
23300;SDS011;11819;51.394;12.340;2023-01-01T11:13:29;11.90;;;7.50;;
23300;SDS011;11819;51.394;12.340;2023-01-01T11:15:56;12.68;;;6.65;;
23300;SDS011;11819;51.394;12.340;2023-01-01T11:18:25;10.38;;;6.15;;
23300;SDS011;11819;51.394;12.340;2023-01-01T11:21:03;11.52;;;6.53;;
23300;SDS011;11819;51.394;12.340;2023-01-01T11:23:35;12.05;;;7.07;;
23300;SDS011;11819;51.394;12.340;2023-01-01T11:26:05;10.13;;;5.80;;
23300;SDS011;11819;51.394;12.340;2023-01-01T11:29:00;15.10;;;6.20;;
23300;SDS011;11819;51.394;12.340;2023-01-01T11:31:42;14.48;;;6.63;;
23300;SDS011;11819;51.394;12.340;2023-01-01T11:34:17;10.45;;;6.35;;
23300;SDS011;11819;51.394;12.340;2023-01-01T11:37:08;10.55;;;5.82;;
23300;SDS011;11819;51.394;12.340;2023-01-01T11:39:42;10.40;;;5.93;;
23300;SDS011;11819;51.394;12.340;2023-01-01T11:42:14;11.73;;;5.82;;
23300;SDS011;11819;51.394;12.340;2023-01-01T11:44:58;15.20;;;6.00;;
23300;SDS011;11819;51.394;12.340;2023-01-01T11:47:40;11.65;;;6.35;;
23300;SDS011;11819;51.394;12.340;2023-01-01T11:52:51;9.48;;;6.05;;
23300;SDS011;11819;51.394;12.340;2023-01-01T11:55:20;13.55;;;7.22;;
23300;SDS011;11819;51.394;12.340;2023-01-01T11:58:27;10.40;;;6.35;;
23300;SDS011;11819;51.394;12.340;2023-01-01T12:01:06;12.20;;;6.18;;
23300;SDS011;11819;51.394;12.340;2023-01-01T12:04:06;13.32;;;6.75;;
23300;SDS011;11819;51.394;12.340;2023-01-01T12:09:09;13.20;;;6.38;;
23300;SDS011;11819;51.394;12.340;2023-01-01T12:14:32;11.10;;;5.55;;
23300;SDS011;11819;51.394;12.340;2023-01-01T12:17:02;9.70;;;5.88;;
23300;SDS011;11819;51.394;12.340;2023-01-01T12:19:47;13.13;;;6.30;;
23300;SDS011;11819;51.394;12.340;2023-01-01T12:22:28;9.02;;;4.50;;
23300;SDS011;11819;51.394;12.340;2023-01-01T12:24:55;11.90;;;5.72;;
23300;SDS011;11819;51.394;12.340;2023-01-01T12:30:35;11.25;;;5.53;;
23300;SDS011;11819;51.394;12.340;2023-01-01T12:33:31;9.25;;;4.95;;
23300;SDS011;11819;51.394;12.340;2023-01-01T12:38:42;11.75;;;5.20;;
23300;SDS011;11819;51.394;12.340;2023-01-01T12:52:54;9.95;;;4.70;;
23300;SDS011;11819;51.394;12.340;2023-01-01T12:55:39;8.57;;;4.70;;
23300;SDS011;11819;51.394;12.340;2023-01-01T13:00:56;9.70;;;4.90;;
23300;SDS011;11819;51.394;12.340;2023-01-01T13:03:46;10.75;;;5.07;;
23300;SDS011;11819;51.394;12.340;2023-01-01T13:06:19;8.38;;;4.68;;
23300;SDS011;11819;51.394;12.340;2023-01-01T13:08:53;10.77;;;5.55;;
23300;SDS011;11819;51.394;12.340;2023-01-01T13:11:25;11.32;;;6.32;;
23300;SDS011;11819;51.394;12.340;2023-01-01T13:13:52;11.35;;;6.57;;
23300;SDS011;11819;51.394;12.340;2023-01-01T13:19:04;11.25;;;4.72;;
23300;SDS011;11819;51.394;12.340;2023-01-01T13:21:30;8.82;;;5.35;;
23300;SDS011;11819;51.394;12.340;2023-01-01T13:23:59;11.32;;;5.18;;
23300;SDS011;11819;51.394;12.340;2023-01-01T13:26:32;9.75;;;4.90;;
23300;SDS011;11819;51.394;12.340;2023-01-01T13:32:12;10.25;;;5.72;;
23300;SDS011;11819;51.394;12.340;2023-01-01T13:35:14;8.32;;;5.82;;
23300;SDS011;11819;51.394;12.340;2023-01-01T13:37:28;11.48;;;5.88;;
23300;SDS011;11819;51.394;12.340;2023-01-01T13:39:59;10.80;;;5.75;;
23300;SDS011;11819;51.394;12.340;2023-01-01T13:42:46;10.77;;;5.55;;
23300;SDS011;11819;51.394;12.340;2023-01-01T13:45:42;8.38;;;5.13;;
23300;SDS011;11819;51.394;12.340;2023-01-01T13:48:29;12.15;;;4.95;;
23300;SDS011;11819;51.394;12.340;2023-01-01T13:51:28;10.90;;;5.45;;
23300;SDS011;11819;51.394;12.340;2023-01-01T13:54:13;8.68;;;4.40;;
23300;SDS011;11819;51.394;12.340;2023-01-01T14:07:19;9.07;;;4.22;;
23300;SDS011;11819;51.394;12.340;2023-01-01T14:10:07;8.93;;;4.85;;
23300;SDS011;11819;51.394;12.340;2023-01-01T14:12:52;11.60;;;4.82;;
23300;SDS011;11819;51.394;12.340;2023-01-01T14:15:41;11.07;;;4.82;;
23300;SDS011;11819;51.394;12.340;2023-01-01T14:18:17;10.98;;;4.50;;
23300;SDS011;11819;51.394;12.340;2023-01-01T14:20:47;8.52;;;3.90;;
23300;SDS011;11819;51.394;12.340;2023-01-01T14:23:16;10.82;;;4.32;;
23300;SDS011;11819;51.394;12.340;2023-01-01T14:25:47;10.65;;;4.72;;
23300;SDS011;11819;51.394;12.340;2023-01-01T14:28:29;9.60;;;4.70;;
23300;SDS011;11819;51.394;12.340;2023-01-01T14:30:57;9.80;;;3.55;;
23300;SDS011;11819;51.394;12.340;2023-01-01T14:33:26;10.02;;;4.95;;
23300;SDS011;11819;51.394;12.340;2023-01-01T14:35:54;11.73;;;4.97;;
23300;SDS011;11819;51.394;12.340;2023-01-01T14:41:11;14.68;;;4.70;;
23300;SDS011;11819;51.394;12.340;2023-01-01T14:43:38;8.13;;;5.07;;
23300;SDS011;11819;51.394;12.340;2023-01-01T14:46:12;8.00;;;4.10;;
23300;SDS011;11819;51.394;12.340;2023-01-01T14:48:44;9.32;;;4.22;;
23300;SDS011;11819;51.394;12.340;2023-01-01T14:51:34;9.60;;;4.93;;
23300;SDS011;11819;51.394;12.340;2023-01-01T14:54:00;10.32;;;5.20;;
23300;SDS011;11819;51.394;12.340;2023-01-01T14:59:06;13.60;;;4.90;;
23300;SDS011;11819;51.394;12.340;2023-01-01T15:01:44;9.25;;;4.18;;
23300;SDS011;11819;51.394;12.340;2023-01-01T15:04:21;8.23;;;4.32;;
23300;SDS011;11819;51.394;12.340;2023-01-01T15:06:57;24.40;;;4.53;;
23300;SDS011;11819;51.394;12.340;2023-01-01T15:09:25;8.68;;;4.60;;
23300;SDS011;11819;51.394;12.340;2023-01-01T15:11:52;8.25;;;4.70;;
23300;SDS011;11819;51.394;12.340;2023-01-01T15:17:03;16.02;;;5.03;;
23300;SDS011;11819;51.394;12.340;2023-01-01T15:19:30;14.35;;;5.35;;
23300;SDS011;11819;51.394;12.340;2023-01-01T15:21:58;9.55;;;4.18;;
23300;SDS011;11819;51.394;12.340;2023-01-01T15:24:25;11.15;;;4.97;;
23300;SDS011;11819;51.394;12.340;2023-01-01T15:26:56;10.15;;;5.22;;
23300;SDS011;11819;51.394;12.340;2023-01-01T15:29:37;15.20;;;4.30;;
23300;SDS011;11819;51.394;12.340;2023-01-01T15:32:11;9.77;;;3.85;;
23300;SDS011;11819;51.394;12.340;2023-01-01T15:34:42;9.00;;;4.60;;
23300;SDS011;11819;51.394;12.340;2023-01-01T15:37:18;9.85;;;4.60;;
23300;SDS011;11819;51.394;12.340;2023-01-01T15:39:51;10.48;;;4.47;;
23300;SDS011;11819;51.394;12.340;2023-01-01T15:42:20;10.90;;;4.45;;
23300;SDS011;11819;51.394;12.340;2023-01-01T15:44:48;8.88;;;4.47;;
23300;SDS011;11819;51.394;12.340;2023-01-01T15:47:14;8.88;;;3.75;;
23300;SDS011;11819;51.394;12.340;2023-01-01T15:49:41;12.32;;;4.88;;
23300;SDS011;11819;51.394;12.340;2023-01-01T15:52:15;11.63;;;4.70;;
23300;SDS011;11819;51.394;12.340;2023-01-01T15:54:49;9.45;;;4.65;;
23300;SDS011;11819;51.394;12.340;2023-01-01T15:57:17;9.55;;;4.63;;
23300;SDS011;11819;51.394;12.340;2023-01-01T15:59:45;9.10;;;5.97;;
23300;SDS011;11819;51.394;12.340;2023-01-01T16:02:14;12.80;;;5.53;;
23300;SDS011;11819;51.394;12.340;2023-01-01T16:04:46;10.68;;;4.97;;
23300;SDS011;11819;51.394;12.340;2023-01-01T16:07:20;14.20;;;5.38;;
23300;SDS011;11819;51.394;12.340;2023-01-01T16:09:51;13.40;;;5.10;;
23300;SDS011;11819;51.394;12.340;2023-01-01T16:12:18;11.25;;;4.95;;
23300;SDS011;11819;51.394;12.340;2023-01-01T16:14:43;10.85;;;5.35;;
23300;SDS011;11819;51.394;12.340;2023-01-01T16:17:14;11.98;;;4.78;;
23300;SDS011;11819;51.394;12.340;2023-01-01T16:19:42;8.63;;;5.00;;
23300;SDS011;11819;51.394;12.340;2023-01-01T16:22:11;11.85;;;6.07;;
23300;SDS011;11819;51.394;12.340;2023-01-01T16:24:38;10.48;;;5.05;;
23300;SDS011;11819;51.394;12.340;2023-01-01T16:27:04;9.73;;;5.45;;
23300;SDS011;11819;51.394;12.340;2023-01-01T16:29:29;13.35;;;6.63;;
23300;SDS011;11819;51.394;12.340;2023-01-01T16:31:55;10.90;;;4.85;;
23300;SDS011;11819;51.394;12.340;2023-01-01T16:34:22;12.82;;;5.13;;
23300;SDS011;11819;51.394;12.340;2023-01-01T16:36:54;9.88;;;5.25;;
23300;SDS011;11819;51.394;12.340;2023-01-01T16:39:19;12.98;;;5.63;;
23300;SDS011;11819;51.394;12.340;2023-01-01T16:41:45;10.52;;;4.45;;
23300;SDS011;11819;51.394;12.340;2023-01-01T16:44:11;7.65;;;4.10;;
23300;SDS011;11819;51.394;12.340;2023-01-01T16:46:40;10.32;;;4.53;;